createdAt,value
2019-06-10T00:00:25.125Z,76.66
2019-06-10T00:02:55.661Z,77.16
2019-06-10T00:05:26.228Z,76.79
2019-06-10T00:07:57.775Z,75.77
2019-06-10T00:10:28.467Z,75.72
2019-06-10T00:13:02.129Z,75.31
2019-06-10T00:15:31.488Z,75.04
2019-06-10T00:18:26.482Z,75.26
2019-06-10T00:20:34.350Z,74.70
2019-06-10T00:23:05.654Z,74.76
2019-06-10T00:25:37.242Z,74.99
2019-06-10T00:28:08.858Z,75.05
2019-06-10T00:30:41.148Z,74.78
2019-06-10T00:33:12.729Z,74.71
2019-06-10T00:35:43.386Z,75.08
2019-06-10T00:38:14.577Z,75.29
2019-06-10T00:40:45.149Z,75.46
2019-06-10T00:43:15.716Z,75.14
2019-06-10T00:45:46.286Z,75.21
2019-06-10T00:48:25.086Z,75.34
2019-06-10T00:50:51.621Z,75.12
2019-06-10T00:53:21.774Z,74.54
2019-06-10T00:55:52.417Z,75.04
2019-06-10T00:58:22.879Z,74.12
2019-06-10T01:00:53.486Z,74.67
2019-06-10T01:03:24.020Z,74.42
2019-06-10T01:05:54.563Z,74.98
2019-06-10T01:08:25.085Z,74.98
2019-06-10T01:10:55.597Z,74.32
2019-06-10T01:13:26.179Z,74.12
2019-06-10T01:15:56.718Z,74.54
2019-06-10T01:18:35.679Z,74.55
2019-06-10T01:21:01.790Z,74.60
2019-06-10T01:23:31.773Z,74.44
2019-06-10T01:26:02.362Z,75.08
2019-06-10T01:28:32.774Z,74.27
2019-06-10T01:31:03.488Z,74.08
2019-06-10T01:33:34.067Z,74.33
2019-06-10T01:36:05.511Z,74.62
2019-06-10T01:38:36.311Z,74.44
2019-06-10T01:41:08.058Z,74.53
2019-06-10T01:43:40.755Z,74.25
2019-06-10T01:46:14.084Z,74.21
2019-06-10T01:48:47.927Z,74.26
2019-06-10T01:51:21.421Z,75.08
2019-06-10T01:53:51.841Z,74.65
2019-06-10T01:56:22.394Z,74.49
2019-06-10T01:58:52.933Z,74.44
2019-06-10T02:01:38.531Z,74.47
2019-06-10T02:04:11.585Z,74.81
2019-06-10T02:06:41.605Z,74.74
2019-06-10T02:09:15.072Z,74.59
2019-06-10T02:11:44.438Z,75.33
2019-06-10T02:14:17.604Z,75.20
2019-06-10T02:16:47.169Z,75.46
2019-06-10T02:19:18.694Z,74.88
2019-06-10T02:21:51.052Z,75.77
2019-06-10T02:24:23.314Z,75.92
2019-06-10T02:26:53.830Z,76.23
2019-06-10T02:29:24.341Z,75.85
2019-06-10T02:31:54.815Z,75.95
2019-06-10T02:34:27.467Z,76.25
2019-06-10T02:36:57.634Z,76.49
2019-06-10T02:39:35.040Z,75.49
2019-06-10T02:42:05.622Z,76.14
2019-06-10T02:44:37.512Z,76.07
2019-06-10T02:47:08.496Z,76.55
2019-06-10T02:49:52.837Z,77.17
2019-06-10T02:52:24.650Z,77.39
2019-06-10T02:54:53.742Z,77.08
2019-06-10T02:57:30.541Z,77.59
2019-06-10T02:59:56.627Z,77.63
2019-06-10T03:02:31.542Z,77.46
2019-06-10T03:04:59.360Z,77.63
2019-06-10T03:07:32.603Z,78.27
2019-06-10T03:10:04.611Z,78.68
2019-06-10T03:12:34.564Z,77.95
2019-06-10T03:15:05.773Z,78.07
2019-06-10T03:17:36.293Z,79.04
2019-06-10T03:20:07.027Z,78.36
2019-06-10T03:22:37.514Z,78.95
2019-06-10T03:25:08.086Z,80.03
2019-06-10T03:27:38.648Z,81.17
2019-06-10T03:30:16.935Z,81.26
2019-06-10T03:32:46.827Z,81.37
2019-06-10T03:35:14.234Z,81.04
2019-06-10T03:37:44.740Z,81.49
2019-06-10T03:40:16.468Z,81.75
2019-06-10T03:42:47.488Z,80.96
2019-06-10T03:45:19.540Z,81.45
2019-06-10T03:47:50.059Z,81.48
2019-06-10T03:50:23.942Z,81.83
2019-06-10T03:52:52.959Z,82.17
2019-06-10T03:55:26.325Z,83.19
2019-06-10T03:57:55.812Z,82.58
2019-06-10T04:00:27.599Z,82.45
2019-06-10T04:02:58.762Z,83.38
2019-06-10T04:05:29.298Z,82.97
2019-06-10T04:08:02.010Z,83.52
2019-06-10T04:10:32.459Z,84.39
2019-06-10T04:13:03.056Z,84.45
2019-06-10T04:15:33.573Z,84.32
2019-06-10T04:18:04.190Z,85.84
2019-06-10T04:20:34.750Z,86.48
2019-06-10T04:23:05.361Z,86.41
2019-06-10T04:25:39.834Z,87.49
2019-06-10T04:28:12.367Z,87.81
2019-06-10T04:30:43.283Z,87.84
2019-06-10T04:33:14.011Z,87.92
2019-06-10T04:35:44.491Z,87.94
2019-06-10T04:38:14.949Z,88.34
2019-06-10T04:40:45.546Z,88.06
2019-06-10T04:43:15.992Z,88.29
2019-06-10T04:45:46.453Z,88.67
2019-06-10T04:48:16.973Z,88.33
2019-06-10T04:50:47.480Z,88.69
2019-06-10T04:53:18.698Z,88.55
2019-06-10T04:55:49.243Z,88.49
2019-06-10T04:58:21.506Z,88.91
2019-06-10T05:00:52.330Z,88.50
2019-06-10T05:03:23.826Z,88.50
2019-06-10T05:05:55.199Z,88.73
2019-06-10T05:08:26.889Z,89.33
2019-06-10T05:10:57.939Z,88.39
2019-06-10T05:13:29.893Z,89.25
2019-06-10T05:16:03.323Z,89.33
2019-06-10T05:18:33.204Z,89.44
2019-06-10T05:21:04.067Z,89.17
2019-06-10T05:23:34.540Z,89.54
2019-06-10T05:26:05.038Z,89.43
2019-06-10T05:28:35.526Z,90.06
2019-06-10T05:31:06.016Z,90.07
2019-06-10T05:33:36.558Z,90.03
2019-06-10T05:36:07.035Z,90.07
2019-06-10T05:38:37.578Z,89.76
2019-06-10T05:41:08.072Z,90.22
2019-06-10T05:43:38.642Z,90.59
2019-06-10T05:46:09.135Z,91.23
2019-06-10T05:48:39.680Z,91.05
2019-06-10T05:51:12.226Z,90.90
2019-06-10T05:53:45.763Z,91.76
2019-06-10T05:56:14.668Z,91.87
2019-06-10T05:58:45.074Z,92.37
2019-06-10T06:01:15.576Z,92.38
2019-06-10T06:03:46.082Z,93.42
2019-06-10T06:06:16.590Z,93.37
2019-06-10T06:08:47.174Z,93.57
2019-06-10T06:11:17.639Z,93.07
2019-06-10T06:13:48.121Z,93.35
2019-06-10T06:16:18.592Z,92.83
2019-06-10T06:18:49.072Z,92.78
2019-06-10T06:21:26.719Z,93.12
2019-06-10T06:23:52.862Z,93.53
2019-06-10T06:26:23.978Z,93.49
2019-06-10T06:28:54.637Z,93.81
2019-06-10T06:31:26.161Z,93.52
2019-06-10T06:33:56.930Z,93.28
2019-06-10T06:36:28.582Z,93.13
2019-06-10T06:38:59.310Z,93.76
2019-06-10T06:41:29.843Z,94.10
2019-06-10T06:44:02.335Z,93.70
2019-06-10T06:46:36.603Z,93.77
2019-06-10T06:49:04.917Z,94.13
2019-06-10T06:51:47.562Z,93.71
2019-06-10T06:54:07.717Z,93.11
2019-06-10T06:56:39.270Z,92.71
2019-06-10T06:59:12.966Z,93.16
2019-06-10T07:01:44.225Z,92.63
2019-06-10T07:04:14.936Z,92.87
2019-06-10T07:06:45.450Z,92.61
2019-06-10T07:09:17.448Z,92.73
2019-06-10T07:11:49.618Z,93.03
2019-06-10T07:14:23.759Z,92.68
2019-06-10T07:16:53.591Z,92.27
2019-06-10T07:19:24.083Z,92.83
2019-06-10T07:22:08.320Z,92.26
2019-06-10T07:24:26.846Z,91.77
2019-06-10T07:26:57.352Z,92.17
2019-06-10T07:29:27.851Z,92.08
2019-06-10T07:31:58.322Z,91.70
2019-06-10T07:34:33.890Z,90.25
2019-06-10T07:37:03.111Z,91.41
2019-06-10T07:39:35.237Z,91.03
2019-06-10T07:42:05.796Z,89.55
2019-06-10T07:44:37.537Z,89.59
2019-06-10T07:47:08.060Z,88.79
2019-06-10T07:49:39.279Z,89.80
2019-06-10T07:52:16.538Z,90.17
2019-06-10T07:54:44.024Z,90.79
2019-06-10T07:57:14.433Z,90.04
2019-06-10T07:59:45.983Z,89.28
2019-06-10T08:02:16.704Z,89.19
2019-06-10T08:04:47.210Z,89.23
2019-06-10T08:07:17.701Z,89.45
2019-06-10T08:09:48.251Z,88.00
2019-06-10T08:12:18.785Z,87.29
2019-06-10T08:14:49.282Z,87.38
2019-06-10T08:17:22.258Z,87.57
2019-06-10T08:19:54.250Z,88.15
2019-06-10T08:22:37.222Z,88.30
2019-06-10T08:24:56.429Z,87.13
2019-06-10T08:27:26.948Z,86.64
2019-06-10T08:30:14.344Z,85.32
2019-06-10T08:32:29.699Z,86.58
2019-06-10T08:35:02.612Z,87.22
2019-06-10T08:37:33.183Z,87.03
2019-06-10T08:40:05.873Z,87.30
2019-06-10T08:42:36.562Z,88.13
2019-06-10T08:45:07.487Z,87.57
2019-06-10T08:47:39.113Z,86.82
2019-06-10T08:50:09.825Z,85.67
2019-06-10T08:52:56.046Z,85.97
2019-06-10T08:55:12.855Z,86.48
2019-06-10T08:57:47.055Z,86.88
2019-06-10T09:00:18.579Z,87.32
2019-06-10T09:02:50.797Z,86.72
2019-06-10T09:05:23.250Z,85.67
2019-06-10T09:07:54.597Z,86.12
2019-06-10T09:10:25.185Z,85.84
2019-06-10T09:12:55.704Z,86.11
2019-06-10T09:15:27.008Z,86.31
2019-06-10T09:17:57.541Z,86.71
2019-06-10T09:20:28.532Z,87.56
2019-06-10T09:23:15.158Z,86.84
2019-06-10T09:25:33.344Z,87.45
2019-06-10T09:28:03.523Z,87.25
2019-06-10T09:30:34.005Z,85.60
2019-06-10T09:33:04.926Z,86.72
2019-06-10T09:35:35.526Z,86.56
2019-06-10T09:38:06.008Z,85.41
2019-06-10T09:41:00.299Z,85.10
2019-06-10T09:43:24.922Z,84.30
2019-06-10T09:45:56.640Z,84.29
2019-06-10T09:48:27.412Z,84.27
2019-06-10T09:50:59.250Z,82.88
2019-06-10T09:53:38.909Z,83.70
2019-06-10T09:56:04.145Z,83.17
2019-06-10T09:58:34.473Z,83.43
2019-06-10T10:01:05.337Z,82.18
2019-06-10T10:03:35.837Z,81.37
2019-06-10T10:06:14.521Z,81.89
2019-06-10T10:08:39.236Z,81.04
2019-06-10T10:11:12.354Z,81.01
2019-06-10T10:13:45.262Z,80.17
2019-06-10T10:16:14.349Z,80.12
2019-06-10T10:18:48.939Z,80.92
2019-06-10T10:21:17.232Z,78.97
2019-06-10T10:24:00.580Z,80.92
2019-06-10T10:26:20.746Z,77.57
2019-06-10T10:28:53.263Z,79.24
2019-06-10T10:31:24.118Z,76.85
2019-06-10T10:33:54.766Z,76.36
2019-06-10T10:36:25.301Z,75.96
2019-06-10T10:38:55.826Z,77.01
2019-06-10T10:41:26.311Z,75.61
2019-06-10T10:43:58.477Z,74.46
2019-06-10T10:46:29.135Z,76.06
2019-06-10T10:48:59.632Z,73.53
2019-06-10T10:51:32.522Z,72.93
2019-06-10T10:54:20.869Z,74.03
2019-06-10T10:56:34.870Z,74.87
2019-06-10T10:59:05.473Z,75.05
2019-06-10T11:01:36.028Z,76.74
2019-06-10T11:04:07.012Z,75.55
2019-06-10T11:06:37.500Z,75.86
2019-06-10T11:09:13.007Z,74.07
2019-06-10T11:11:44.541Z,74.01
2019-06-10T11:14:16.539Z,74.28
2019-06-10T11:16:47.206Z,75.11
2019-06-10T11:19:17.726Z,76.01
2019-06-10T11:21:49.477Z,72.80
2019-06-10T11:24:33.631Z,71.96
2019-06-10T11:26:55.167Z,68.55
2019-06-10T11:29:24.690Z,71.91
2019-06-10T11:31:57.397Z,72.14
2019-06-10T11:34:27.395Z,71.38
2019-06-10T11:36:58.342Z,71.29
2019-06-10T11:39:29.028Z,71.36
2019-06-10T11:42:02.224Z,68.43
2019-06-10T11:44:33.863Z,69.93
2019-06-10T11:47:04.550Z,72.11
2019-06-10T11:49:35.027Z,70.94
2019-06-10T11:52:05.557Z,71.02
2019-06-10T11:54:50.623Z,70.87
2019-06-10T11:57:08.447Z,70.28
2019-06-10T11:59:38.974Z,66.89
2019-06-10T12:02:09.534Z,68.70
2019-06-10T12:04:40.100Z,67.98
2019-06-10T12:07:12.739Z,67.55
2019-06-10T12:09:42.835Z,67.74
2019-06-10T12:12:13.615Z,66.88
2019-06-10T12:14:44.666Z,69.75
2019-06-10T12:17:30.789Z,68.56
2019-06-10T12:19:47.378Z,67.49
2019-06-10T12:22:17.856Z,66.71
2019-06-10T12:24:50.222Z,64.91
2019-06-10T12:27:20.578Z,62.58
2019-06-10T12:29:54.082Z,58.07
2019-06-10T12:32:23.408Z,57.77
2019-06-10T12:34:54.577Z,58.02
2019-06-10T12:37:26.102Z,59.52
2019-06-10T12:39:59.376Z,58.54
2019-06-10T12:42:28.757Z,62.66
2019-06-10T12:45:00.684Z,61.48
2019-06-10T12:47:33.238Z,60.48
2019-06-10T12:50:05.389Z,57.62
2019-06-10T12:52:36.082Z,56.34
2019-06-10T12:55:07.492Z,59.70
2019-06-10T12:57:38.011Z,56.02
2019-06-10T13:00:20.562Z,54.51
2019-06-10T13:02:43.123Z,55.47
2019-06-10T13:05:14.146Z,55.28
2019-06-10T13:07:47.717Z,54.73
2019-06-10T13:10:37.832Z,51.29
2019-06-10T13:13:09.339Z,50.51
2019-06-10T13:15:38.954Z,49.96
2019-06-10T13:18:13.542Z,49.72
2019-06-10T13:20:39.664Z,49.39
2019-06-10T13:23:20.467Z,50.12
2019-06-10T13:25:51.244Z,51.15
2019-06-10T13:28:11.622Z,46.86
2019-06-10T13:30:42.843Z,51.05
2019-06-10T13:33:14.700Z,50.02
2019-06-10T13:35:44.334Z,49.09
2019-06-10T13:38:14.008Z,47.80
2019-06-10T13:40:44.156Z,48.50
2019-06-10T13:43:13.628Z,51.15
2019-06-10T13:45:43.186Z,55.55
2019-06-10T13:48:14.963Z,58.18
2019-06-10T13:50:43.952Z,61.52
2019-06-10T13:53:13.713Z,57.04
2019-06-10T13:55:43.693Z,53.12
2019-06-10T13:58:14.717Z,51.00
2019-06-10T14:00:46.734Z,52.47
2019-06-10T14:03:16.229Z,57.01
2019-06-10T14:05:46.031Z,55.62
2019-06-10T14:08:15.602Z,59.36
2019-06-10T14:10:45.097Z,57.20
2019-06-10T14:13:15.668Z,55.84
2019-06-10T14:15:45.581Z,52.43
2019-06-10T14:18:15.399Z,52.64
2019-06-10T14:20:45.282Z,49.87
2019-06-10T14:23:17.435Z,51.88
2019-06-10T14:25:45.985Z,51.25
2019-06-10T14:28:34.942Z,52.17
2019-06-10T14:30:46.737Z,50.63
2019-06-10T14:33:16.737Z,51.70
2019-06-10T14:35:46.436Z,50.41
2019-06-10T14:38:15.977Z,51.22
2019-06-10T14:40:45.517Z,55.63
2019-06-10T14:43:16.325Z,57.06
2019-06-10T14:45:45.869Z,58.77
2019-06-10T14:48:17.240Z,59.82
2019-06-10T14:50:46.571Z,57.57
2019-06-10T14:53:16.920Z,56.73
2019-06-10T14:55:46.539Z,56.39
2019-06-10T14:58:18.457Z,53.02
2019-06-10T15:00:47.236Z,52.47
2019-06-10T15:03:19.875Z,52.74
2019-06-10T15:05:47.939Z,55.06
2019-06-10T15:08:17.400Z,59.14
2019-06-10T15:10:46.884Z,61.24
2019-06-10T15:13:16.446Z,62.85
2019-06-10T15:15:46.533Z,59.56
2019-06-10T15:18:18.113Z,56.77
2019-06-10T15:20:47.337Z,56.02
2019-06-10T15:23:18.712Z,54.61
2019-06-10T15:25:52.508Z,54.43
2019-06-10T15:28:20.469Z,53.45
2019-06-10T15:30:52.499Z,53.64
2019-06-10T15:33:23.751Z,52.62
2019-06-10T15:35:53.535Z,51.84
2019-06-10T15:38:23.542Z,52.20
2019-06-10T15:40:53.570Z,52.47
2019-06-10T15:43:23.688Z,51.12
2019-06-10T15:45:53.354Z,50.72
2019-06-10T15:48:25.298Z,49.41
2019-06-10T15:50:54.111Z,48.13
2019-06-10T15:53:25.704Z,46.90
2019-06-10T15:56:13.355Z,47.15
2019-06-10T15:58:26.210Z,51.69
2019-06-10T16:00:55.713Z,47.28
2019-06-10T16:03:25.839Z,47.64
2019-06-10T16:05:55.405Z,47.74
2019-06-10T16:08:24.888Z,49.12
2019-06-10T16:10:54.348Z,47.24
2019-06-10T16:13:25.823Z,48.76
2019-06-10T16:15:55.064Z,49.50
2019-06-10T16:18:27.882Z,50.08
2019-06-10T16:20:55.898Z,51.48
2019-06-10T16:23:26.747Z,51.95
2019-06-10T16:25:56.416Z,49.99
2019-06-10T16:28:26.547Z,50.66
2019-06-10T16:30:56.149Z,54.60
2019-06-10T16:33:27.660Z,58.21
2019-06-10T16:35:56.925Z,59.95
2019-06-10T16:38:27.274Z,62.53
2019-06-10T16:40:56.818Z,65.31
2019-06-10T16:43:27.667Z,64.96
2019-06-10T16:45:57.314Z,66.40
2019-06-10T16:48:26.777Z,67.23
2019-06-10T16:50:56.371Z,68.04
2019-06-10T16:53:28.917Z,68.12
2019-06-10T16:55:57.077Z,69.37
2019-06-10T16:58:28.434Z,69.38
2019-06-10T17:00:57.867Z,68.35
2019-06-10T17:03:29.191Z,70.33
2019-06-10T17:05:58.591Z,70.76
2019-06-10T17:08:28.585Z,71.22
2019-06-10T17:10:58.263Z,71.70
2019-06-10T17:13:30.172Z,72.48
2019-06-10T17:15:59.766Z,72.34
2019-06-10T17:18:30.109Z,71.27
2019-06-10T17:21:02.713Z,71.99
2019-06-10T17:23:36.007Z,72.39
2019-06-10T17:26:02.271Z,73.56
2019-06-10T17:28:36.315Z,74.55
2019-06-10T17:31:03.913Z,73.87
2019-06-10T17:33:35.784Z,74.83
2019-06-10T17:36:04.942Z,74.92
2019-06-10T17:38:34.421Z,75.52
2019-06-10T17:41:03.902Z,76.25
2019-06-10T17:43:34.431Z,76.34
2019-06-10T17:46:04.129Z,76.66
2019-06-10T17:48:33.969Z,77.18
2019-06-10T17:51:03.579Z,77.00
2019-06-10T17:53:34.972Z,76.90
2019-06-10T17:56:04.225Z,77.49
2019-06-10T17:58:50.362Z,77.35
2019-06-10T18:01:04.928Z,78.02
2019-06-10T18:03:35.777Z,79.00
2019-06-10T18:06:05.630Z,78.97
2019-06-10T18:08:36.657Z,78.93
2019-06-10T18:11:06.220Z,79.98
2019-06-10T18:13:36.133Z,80.36
2019-06-10T18:16:05.766Z,81.06
2019-06-10T18:18:37.119Z,80.93
2019-06-10T18:21:06.552Z,81.68
2019-06-10T18:23:36.069Z,80.91
2019-06-10T18:26:05.530Z,81.64
2019-06-10T18:28:56.744Z,80.92
2019-06-10T18:31:06.267Z,80.95
2019-06-10T18:33:37.844Z,80.94
2019-06-10T18:36:06.987Z,81.11
2019-06-10T18:38:37.316Z,81.74
2019-06-10T18:41:06.903Z,81.60
2019-06-10T18:43:36.971Z,82.14
2019-06-10T18:46:06.495Z,83.08
2019-06-10T18:48:38.071Z,82.41
2019-06-10T18:51:07.371Z,82.51
2019-06-10T18:53:36.815Z,82.88
2019-06-10T18:56:06.292Z,83.38
2019-06-10T18:58:37.428Z,83.38
2019-06-10T19:01:08.114Z,83.53
2019-06-10T19:03:38.295Z,84.32
2019-06-10T19:06:09.059Z,84.49
2019-06-10T19:08:39.287Z,84.50
2019-06-10T19:11:09.748Z,84.48
2019-06-10T19:13:40.987Z,85.08
2019-06-10T19:16:12.761Z,85.43
2019-06-10T19:18:43.155Z,85.83
2019-06-10T19:21:13.292Z,85.93
2019-06-10T19:23:43.903Z,85.81
2019-06-10T19:26:13.754Z,86.48
2019-06-10T19:28:45.219Z,86.27
2019-06-10T19:31:14.592Z,86.59
2019-06-10T19:33:45.144Z,86.78
2019-06-10T19:36:15.031Z,87.18
2019-06-10T19:38:44.584Z,87.77
2019-06-10T19:41:14.004Z,87.15
2019-06-10T19:43:45.381Z,87.28
2019-06-10T19:46:14.781Z,87.61
2019-06-10T19:48:55.641Z,87.40
2019-06-10T19:51:15.600Z,87.02
2019-06-10T19:53:45.258Z,87.37
2019-06-10T19:56:14.579Z,87.28
2019-06-10T19:58:46.221Z,87.81
2019-06-10T20:01:15.293Z,87.67
2019-06-10T20:03:46.797Z,87.69
2019-06-10T20:06:16.011Z,87.56
2019-06-10T20:08:46.222Z,87.76
2019-06-10T20:11:15.764Z,88.09
2019-06-10T20:13:46.757Z,87.88
2019-06-10T20:16:16.445Z,87.96
2019-06-10T20:18:48.198Z,87.90
2019-06-10T20:21:17.255Z,87.99
2019-06-10T20:23:47.877Z,87.65
2019-06-10T20:26:18.249Z,87.61
2019-06-10T20:28:52.233Z,87.80
2019-06-10T20:31:19.012Z,87.66
2019-06-10T20:33:48.491Z,87.78
2019-06-10T20:36:23.377Z,88.21
2019-06-10T20:38:50.642Z,88.36
2019-06-10T20:41:20.494Z,87.97
2019-06-10T20:43:52.618Z,87.87
2019-06-10T20:46:23.519Z,88.84
2019-06-10T20:48:54.626Z,88.56
2019-06-10T20:51:26.880Z,89.05
2019-06-10T20:53:54.911Z,88.81
2019-06-10T20:56:24.356Z,88.94
2019-06-10T20:58:53.867Z,88.43
2019-06-10T21:01:25.307Z,88.69
2019-06-10T21:03:54.649Z,88.71
2019-06-10T21:06:25.065Z,88.92
2019-06-10T21:08:55.881Z,88.71
2019-06-10T21:11:25.384Z,89.05
2019-06-10T21:13:55.649Z,89.50
2019-06-10T21:16:25.467Z,89.59
2019-06-10T21:18:55.696Z,89.43
2019-06-10T21:21:25.529Z,89.65
2019-06-10T21:23:54.965Z,89.66
2019-06-10T21:26:24.358Z,89.87
2019-06-10T21:28:55.088Z,89.67
2019-06-10T21:31:24.710Z,89.91
2019-06-10T21:33:55.677Z,90.33
2019-06-10T21:36:25.542Z,90.72
2019-06-10T21:38:55.892Z,91.11
2019-06-10T21:41:25.560Z,91.03
2019-06-10T21:43:59.102Z,92.07
2019-06-10T21:46:26.196Z,92.17
2019-06-10T21:48:56.095Z,92.53
2019-06-10T21:51:25.759Z,92.19
2019-06-10T21:53:55.417Z,92.33
2019-06-10T21:56:24.912Z,92.88
2019-06-10T21:58:55.691Z,92.95
2019-06-10T22:01:25.365Z,93.07
2019-06-10T22:04:00.736Z,93.36
2019-06-10T22:06:26.142Z,93.46
2019-06-10T22:08:56.618Z,93.14
2019-06-10T22:11:26.272Z,93.33
2019-06-10T22:13:56.377Z,93.60
2019-06-10T22:16:25.890Z,94.28
2019-06-10T22:18:55.370Z,94.50
2019-06-10T22:21:24.938Z,95.45
2019-06-10T22:23:56.931Z,95.95
2019-06-10T22:26:25.569Z,95.62
2019-06-10T22:28:57.521Z,95.60
2019-06-10T22:31:26.671Z,96.02
2019-06-10T22:33:57.610Z,96.13
2019-06-10T22:36:27.287Z,96.22
2019-06-10T22:38:58.958Z,96.19
2019-06-10T22:41:27.949Z,96.56
2019-06-10T22:43:57.692Z,96.52
2019-06-10T22:46:27.317Z,96.94
2019-06-10T22:48:57.422Z,97.11
2019-06-10T22:51:26.892Z,97.29
2019-06-10T22:53:58.435Z,97.15
2019-06-10T22:56:27.581Z,96.91
2019-06-10T22:58:57.420Z,97.01
2019-06-10T23:01:34.175Z,97.07
2019-06-10T23:03:58.164Z,96.84
2019-06-10T23:06:27.658Z,96.92
2019-06-10T23:08:58.158Z,96.96
2019-06-10T23:11:28.288Z,97.03
2019-06-10T23:13:58.442Z,97.01
2019-06-10T23:16:29.135Z,97.45
2019-06-10T23:18:59.866Z,97.76
2019-06-10T23:21:29.503Z,97.73
2019-06-10T23:24:00.141Z,97.72
2019-06-10T23:26:30.275Z,98.01
2019-06-10T23:29:00.241Z,98.33
2019-06-10T23:31:29.704Z,98.65
2019-06-10T23:33:59.151Z,98.63
2019-06-10T23:36:28.744Z,98.66
2019-06-10T23:38:58.921Z,98.63
2019-06-10T23:41:28.412Z,98.86
2019-06-10T23:43:59.142Z,98.85
2019-06-10T23:46:28.666Z,98.71
2019-06-10T23:48:58.047Z,98.67
2019-06-10T23:51:27.532Z,98.74
2019-06-10T23:53:58.871Z,98.60
2019-06-10T23:56:28.135Z,98.75
2019-06-10T23:58:58.602Z,98.90
